Terminal Aerodrome Forecast
Issued by NWS Grand Forks, ND

Home | Current Version | Previous Version | Graphics & Text | Print | Product List | Glossary On
Versions: 1 2 3 4 5 6 7 8 9 10 11 12 13 14 15 16
162
FTUS43 KFGF 231932 AAB
TAFFAR
TAF AMD
KFAR 231932Z 2320/2418 09013G20KT P6SM VCTS BKN050CB
     FM232100 16010KT P6SM VCTS BKN060CB
     FM240000 19009KT P6SM SCT090
     FM240300 24009KT P6SM FEW250
     FM241500 30014G20KT P6SM FEW250=

USA.gov is the U.S. government's official web portal to all federal, state and local government web resources and services.